sensor_id;sensor_type;location;lat;lon;timestamp;P1;durP1;ratioP1;P2;durP2;ratioP2
30723;SDS011;17473;52.286;20.930;2022-09-09T00:04:36;13.15;;;6.25;;
30723;SDS011;17473;52.286;20.930;2022-09-09T00:07:21;10.90;;;6.15;;
30723;SDS011;17473;52.286;20.930;2022-09-09T00:15:59;14.00;;;6.50;;
30723;SDS011;17473;52.286;20.930;2022-09-09T00:21:23;10.87;;;5.90;;
30723;SDS011;17473;52.286;20.930;2022-09-09T00:24:29;15.47;;;7.07;;
30723;SDS011;17473;52.286;20.930;2022-09-09T00:27:51;11.90;;;6.25;;
30723;SDS011;17473;52.286;20.930;2022-09-09T00:32:49;11.20;;;6.90;;
30723;SDS011;17473;52.286;20.930;2022-09-09T00:35:29;12.80;;;6.63;;
30723;SDS011;17473;52.286;20.930;2022-09-09T00:38:12;10.47;;;6.20;;
30723;SDS011;17473;52.286;20.930;2022-09-09T00:40:51;12.40;;;6.65;;
30723;SDS011;17473;52.286;20.930;2022-09-09T00:43:29;11.32;;;6.32;;
30723;SDS011;17473;52.286;20.930;2022-09-09T00:48:57;9.37;;;6.20;;
30723;SDS011;17473;52.286;20.930;2022-09-09T00:58:07;15.25;;;7.53;;
30723;SDS011;17473;52.286;20.930;2022-09-09T01:00:38;12.33;;;6.80;;
30723;SDS011;17473;52.286;20.930;2022-09-09T01:03:21;13.88;;;7.15;;
30723;SDS011;17473;52.286;20.930;2022-09-09T01:06:14;14.02;;;7.03;;
30723;SDS011;17473;52.286;20.930;2022-09-09T01:12:05;10.98;;;6.60;;
30723;SDS011;17473;52.286;20.930;2022-09-09T01:14:51;13.30;;;6.60;;
30723;SDS011;17473;52.286;20.930;2022-09-09T01:29:09;12.07;;;6.97;;
30723;SDS011;17473;52.286;20.930;2022-09-09T01:31:40;15.40;;;8.10;;
30723;SDS011;17473;52.286;20.930;2022-09-09T01:34:36;14.60;;;6.80;;
30723;SDS011;17473;52.286;20.930;2022-09-09T01:37:10;11.07;;;7.47;;
30723;SDS011;17473;52.286;20.930;2022-09-09T01:39:40;12.10;;;7.33;;
30723;SDS011;17473;52.286;20.930;2022-09-09T01:42:11;10.93;;;7.07;;
30723;SDS011;17473;52.286;20.930;2022-09-09T01:44:42;11.53;;;6.67;;
30723;SDS011;17473;52.286;20.930;2022-09-09T01:47:09;14.23;;;7.70;;
30723;SDS011;17473;52.286;20.930;2022-09-09T01:49:36;20.83;;;7.67;;
30723;SDS011;17473;52.286;20.930;2022-09-09T01:52:03;14.73;;;6.90;;
30723;SDS011;17473;52.286;20.930;2022-09-09T01:54:30;13.37;;;7.73;;
30723;SDS011;17473;52.286;20.930;2022-09-09T02:02:39;15.87;;;7.80;;
30723;SDS011;17473;52.286;20.930;2022-09-09T02:05:42;12.20;;;7.87;;
30723;SDS011;17473;52.286;20.930;2022-09-09T02:08:26;15.57;;;7.10;;
30723;SDS011;17473;52.286;20.930;2022-09-09T02:11:01;13.17;;;7.03;;
30723;SDS011;17473;52.286;20.930;2022-09-09T02:13:51;13.37;;;8.27;;
30723;SDS011;17473;52.286;20.930;2022-09-09T02:16:30;13.23;;;8.40;;
30723;SDS011;17473;52.286;20.930;2022-09-09T02:21:40;14.23;;;7.40;;
30723;SDS011;17473;52.286;20.930;2022-09-09T02:24:12;12.67;;;7.70;;
30723;SDS011;17473;52.286;20.930;2022-09-09T02:26:42;15.77;;;8.20;;
30723;SDS011;17473;52.286;20.930;2022-09-09T02:29:22;16.67;;;7.73;;
30723;SDS011;17473;52.286;20.930;2022-09-09T02:32:01;14.80;;;7.63;;
30723;SDS011;17473;52.286;20.930;2022-09-09T02:34:33;15.70;;;7.80;;
30723;SDS011;17473;52.286;20.930;2022-09-09T02:37:08;13.47;;;8.00;;
30723;SDS011;17473;52.286;20.930;2022-09-09T02:39:37;17.50;;;8.30;;
30723;SDS011;17473;52.286;20.930;2022-09-09T02:42:04;17.33;;;9.07;;
30723;SDS011;17473;52.286;20.930;2022-09-09T02:44:31;14.90;;;8.63;;
30723;SDS011;17473;52.286;20.930;2022-09-09T02:47:07;15.57;;;9.30;;
30723;SDS011;17473;52.286;20.930;2022-09-09T02:55:41;16.42;;;8.05;;
30723;SDS011;17473;52.286;20.930;2022-09-09T02:58:21;12.17;;;7.50;;
30723;SDS011;17473;52.286;20.930;2022-09-09T03:00:49;18.70;;;8.40;;
30723;SDS011;17473;52.286;20.930;2022-09-09T03:03:17;12.87;;;8.40;;
30723;SDS011;17473;52.286;20.930;2022-09-09T03:05:46;14.57;;;8.43;;
30723;SDS011;17473;52.286;20.930;2022-09-09T03:08:13;14.73;;;8.77;;
30723;SDS011;17473;52.286;20.930;2022-09-09T03:10:40;16.70;;;8.43;;
30723;SDS011;17473;52.286;20.930;2022-09-09T03:13:08;13.67;;;8.10;;
30723;SDS011;17473;52.286;20.930;2022-09-09T03:15:35;17.63;;;8.77;;
30723;SDS011;17473;52.286;20.930;2022-09-09T03:18:02;15.43;;;9.13;;
30723;SDS011;17473;52.286;20.930;2022-09-09T03:20:29;13.67;;;8.30;;
30723;SDS011;17473;52.286;20.930;2022-09-09T03:22:57;16.37;;;8.87;;
30723;SDS011;17473;52.286;20.930;2022-09-09T03:25:26;15.45;;;9.00;;
30723;SDS011;17473;52.286;20.930;2022-09-09T03:27:54;13.97;;;8.33;;
30723;SDS011;17473;52.286;20.930;2022-09-09T03:30:22;11.67;;;8.50;;
30723;SDS011;17473;52.286;20.930;2022-09-09T03:32:54;18.88;;;9.90;;
30723;SDS011;17473;52.286;20.930;2022-09-09T03:35:21;17.43;;;7.63;;
30723;SDS011;17473;52.286;20.930;2022-09-09T03:37:48;18.25;;;8.77;;
30723;SDS011;17473;52.286;20.930;2022-09-09T03:40:15;14.87;;;8.50;;
30723;SDS011;17473;52.286;20.930;2022-09-09T03:42:42;15.40;;;8.43;;
30723;SDS011;17473;52.286;20.930;2022-09-09T03:45:09;13.83;;;7.80;;
30723;SDS011;17473;52.286;20.930;2022-09-09T03:47:37;12.90;;;7.77;;
30723;SDS011;17473;52.286;20.930;2022-09-09T03:50:05;11.17;;;7.97;;
30723;SDS011;17473;52.286;20.930;2022-09-09T03:52:39;15.83;;;7.87;;
30723;SDS011;17473;52.286;20.930;2022-09-09T03:55:07;14.43;;;7.67;;
30723;SDS011;17473;52.286;20.930;2022-09-09T03:57:35;12.63;;;7.60;;
30723;SDS011;17473;52.286;20.930;2022-09-09T04:00:03;12.67;;;8.03;;
30723;SDS011;17473;52.286;20.930;2022-09-09T04:02:33;14.20;;;7.33;;
30723;SDS011;17473;52.286;20.930;2022-09-09T04:05:00;11.20;;;7.40;;
30723;SDS011;17473;52.286;20.930;2022-09-09T04:07:27;12.03;;;7.17;;
30723;SDS011;17473;52.286;20.930;2022-09-09T04:09:54;11.40;;;7.57;;
30723;SDS011;17473;52.286;20.930;2022-09-09T04:12:21;9.57;;;6.67;;
30723;SDS011;17473;52.286;20.930;2022-09-09T04:14:48;12.05;;;7.57;;
30723;SDS011;17473;52.286;20.930;2022-09-09T04:17:15;9.60;;;6.70;;
30723;SDS011;17473;52.286;20.930;2022-09-09T04:19:43;10.50;;;6.53;;
30723;SDS011;17473;52.286;20.930;2022-09-09T04:22:10;9.50;;;6.13;;
30723;SDS011;17473;52.286;20.930;2022-09-09T04:24:37;9.17;;;6.67;;
30723;SDS011;17473;52.286;20.930;2022-09-09T04:27:04;10.07;;;7.40;;
30723;SDS011;17473;52.286;20.930;2022-09-09T04:29:31;8.07;;;5.90;;
30723;SDS011;17473;52.286;20.930;2022-09-09T04:31:58;10.55;;;5.85;;
30723;SDS011;17473;52.286;20.930;2022-09-09T04:34:25;10.07;;;6.57;;
30723;SDS011;17473;52.286;20.930;2022-09-09T04:36:52;7.83;;;6.03;;
30723;SDS011;17473;52.286;20.930;2022-09-09T04:39:19;8.55;;;5.88;;
30723;SDS011;17473;52.286;20.930;2022-09-09T04:41:46;9.57;;;5.70;;
30723;SDS011;17473;52.286;20.930;2022-09-09T04:44:13;10.10;;;6.07;;
30723;SDS011;17473;52.286;20.930;2022-09-09T04:46:40;7.50;;;5.70;;
30723;SDS011;17473;52.286;20.930;2022-09-09T04:49:07;10.50;;;5.22;;
30723;SDS011;17473;52.286;20.930;2022-09-09T04:51:40;8.00;;;5.82;;
30723;SDS011;17473;52.286;20.930;2022-09-09T04:54:07;7.72;;;4.97;;
30723;SDS011;17473;52.286;20.930;2022-09-09T04:56:34;10.03;;;6.03;;
30723;SDS011;17473;52.286;20.930;2022-09-09T04:59:02;7.65;;;5.47;;
30723;SDS011;17473;52.286;20.930;2022-09-09T05:01:29;6.27;;;5.10;;
30723;SDS011;17473;52.286;20.930;2022-09-09T05:03:56;7.00;;;5.18;;
30723;SDS011;17473;52.286;20.930;2022-09-09T05:06:23;7.28;;;5.10;;
30723;SDS011;17473;52.286;20.930;2022-09-09T05:08:51;9.98;;;5.55;;
30723;SDS011;17473;52.286;20.930;2022-09-09T05:11:22;7.83;;;5.33;;
30723;SDS011;17473;52.286;20.930;2022-09-09T05:13:53;9.90;;;5.37;;
30723;SDS011;17473;52.286;20.930;2022-09-09T05:16:20;7.87;;;5.13;;
30723;SDS011;17473;52.286;20.930;2022-09-09T05:18:49;8.25;;;4.93;;
30723;SDS011;17473;52.286;20.930;2022-09-09T05:21:18;9.80;;;5.07;;
30723;SDS011;17473;52.286;20.930;2022-09-09T05:23:47;6.22;;;5.07;;
30723;SDS011;17473;52.286;20.930;2022-09-09T05:26:15;7.57;;;5.38;;
30723;SDS011;17473;52.286;20.930;2022-09-09T05:28:45;9.32;;;5.80;;
30723;SDS011;17473;52.286;20.930;2022-09-09T05:31:13;6.68;;;4.90;;
30723;SDS011;17473;52.286;20.930;2022-09-09T05:33:43;6.38;;;4.80;;
30723;SDS011;17473;52.286;20.930;2022-09-09T05:36:16;7.15;;;4.88;;
30723;SDS011;17473;52.286;20.930;2022-09-09T05:38:46;6.93;;;4.90;;
30723;SDS011;17473;52.286;20.930;2022-09-09T05:41:13;7.13;;;5.10;;
30723;SDS011;17473;52.286;20.930;2022-09-09T05:43:44;8.67;;;5.20;;
30723;SDS011;17473;52.286;20.930;2022-09-09T05:46:12;5.72;;;5.07;;
30723;SDS011;17473;52.286;20.930;2022-09-09T05:48:44;7.00;;;4.55;;
30723;SDS011;17473;52.286;20.930;2022-09-09T05:51:14;8.70;;;4.63;;
30723;SDS011;17473;52.286;20.930;2022-09-09T05:53:48;8.27;;;5.07;;
30723;SDS011;17473;52.286;20.930;2022-09-09T05:56:16;5.35;;;3.85;;
30723;SDS011;17473;52.286;20.930;2022-09-09T05:58:44;6.30;;;4.13;;
30723;SDS011;17473;52.286;20.930;2022-09-09T06:01:19;7.38;;;4.57;;
30723;SDS011;17473;52.286;20.930;2022-09-09T06:03:50;6.50;;;4.55;;
30723;SDS011;17473;52.286;20.930;2022-09-09T06:06:22;6.07;;;4.38;;
30723;SDS011;17473;52.286;20.930;2022-09-09T06:08:55;5.85;;;4.32;;
30723;SDS011;17473;52.286;20.930;2022-09-09T06:11:26;4.72;;;4.22;;
30723;SDS011;17473;52.286;20.930;2022-09-09T06:13:59;5.13;;;4.35;;
30723;SDS011;17473;52.286;20.930;2022-09-09T06:16:27;6.43;;;4.90;;
30723;SDS011;17473;52.286;20.930;2022-09-09T06:18:56;6.10;;;4.82;;
30723;SDS011;17473;52.286;20.930;2022-09-09T06:21:27;7.05;;;4.18;;
30723;SDS011;17473;52.286;20.930;2022-09-09T06:24:00;5.80;;;4.53;;
30723;SDS011;17473;52.286;20.930;2022-09-09T06:26:35;7.97;;;4.75;;
30723;SDS011;17473;52.286;20.930;2022-09-09T06:29:09;6.22;;;4.32;;
30723;SDS011;17473;52.286;20.930;2022-09-09T06:31:36;5.80;;;4.63;;
30723;SDS011;17473;52.286;20.930;2022-09-09T06:34:05;7.03;;;4.75;;
30723;SDS011;17473;52.286;20.930;2022-09-09T06:36:35;8.38;;;4.85;;
30723;SDS011;17473;52.286;20.930;2022-09-09T06:39:04;9.82;;;4.60;;
30723;SDS011;17473;52.286;20.930;2022-09-09T06:41:39;5.05;;;4.22;;
30723;SDS011;17473;52.286;20.930;2022-09-09T06:44:07;5.93;;;4.93;;
30723;SDS011;17473;52.286;20.930;2022-09-09T06:46:34;6.28;;;4.88;;
30723;SDS011;17473;52.286;20.930;2022-09-09T06:49:02;11.45;;;4.82;;
30723;SDS011;17473;52.286;20.930;2022-09-09T06:51:30;10.57;;;5.03;;
30723;SDS011;17473;52.286;20.930;2022-09-09T06:54:03;11.20;;;5.30;;
30723;SDS011;17473;52.286;20.930;2022-09-09T06:56:31;7.15;;;4.80;;
30723;SDS011;17473;52.286;20.930;2022-09-09T06:59:03;8.65;;;5.35;;
30723;SDS011;17473;52.286;20.930;2022-09-09T07:01:33;9.50;;;4.93;;
30723;SDS011;17473;52.286;20.930;2022-09-09T07:04:02;9.48;;;5.18;;
30723;SDS011;17473;52.286;20.930;2022-09-09T07:06:34;8.00;;;5.63;;
30723;SDS011;17473;52.286;20.930;2022-09-09T07:09:13;7.78;;;5.28;;
30723;SDS011;17473;52.286;20.930;2022-09-09T07:11:43;8.30;;;5.40;;
30723;SDS011;17473;52.286;20.930;2022-09-09T07:14:15;7.75;;;5.22;;
30723;SDS011;17473;52.286;20.930;2022-09-09T07:16:43;8.45;;;5.38;;
30723;SDS011;17473;52.286;20.930;2022-09-09T07:19:11;8.60;;;5.43;;
30723;SDS011;17473;52.286;20.930;2022-09-09T07:21:40;7.88;;;5.03;;
30723;SDS011;17473;52.286;20.930;2022-09-09T07:24:08;7.80;;;5.55;;
30723;SDS011;17473;52.286;20.930;2022-09-09T07:26:37;10.80;;;5.90;;
30723;SDS011;17473;52.286;20.930;2022-09-09T07:29:06;8.88;;;6.28;;
30723;SDS011;17473;52.286;20.930;2022-09-09T07:31:35;10.55;;;5.95;;
30723;SDS011;17473;52.286;20.930;2022-09-09T07:34:04;10.30;;;6.38;;
30723;SDS011;17473;52.286;20.930;2022-09-09T07:36:35;9.38;;;5.70;;
30723;SDS011;17473;52.286;20.930;2022-09-09T07:39:06;8.60;;;5.82;;
30723;SDS011;17473;52.286;20.930;2022-09-09T07:41:43;8.30;;;6.35;;
30723;SDS011;17473;52.286;20.930;2022-09-09T07:44:22;7.70;;;5.82;;
30723;SDS011;17473;52.286;20.930;2022-09-09T07:46:51;10.02;;;6.90;;
30723;SDS011;17473;52.286;20.930;2022-09-09T07:49:18;11.57;;;7.32;;
30723;SDS011;17473;52.286;20.930;2022-09-09T07:51:54;9.68;;;7.50;;
30723;SDS011;17473;52.286;20.930;2022-09-09T07:54:21;10.70;;;7.40;;
30723;SDS011;17473;52.286;20.930;2022-09-09T07:56:50;10.27;;;7.07;;
30723;SDS011;17473;52.286;20.930;2022-09-09T07:59:18;11.38;;;7.43;;
30723;SDS011;17473;52.286;20.930;2022-09-09T08:01:47;8.68;;;6.80;;
30723;SDS011;17473;52.286;20.930;2022-09-09T08:04:20;12.27;;;8.18;;
30723;SDS011;17473;52.286;20.930;2022-09-09T08:06:58;11.82;;;7.32;;
30723;SDS011;17473;52.286;20.930;2022-09-09T08:09:27;9.88;;;6.95;;
30723;SDS011;17473;52.286;20.930;2022-09-09T08:11:56;11.25;;;8.10;;
30723;SDS011;17473;52.286;20.930;2022-09-09T08:14:23;11.82;;;8.25;;
30723;SDS011;17473;52.286;20.930;2022-09-09T08:16:51;11.80;;;7.97;;
30723;SDS011;17473;52.286;20.930;2022-09-09T08:19:20;10.25;;;8.07;;
30723;SDS011;17473;52.286;20.930;2022-09-09T08:21:47;10.32;;;8.50;;
30723;SDS011;17473;52.286;20.930;2022-09-09T08:24:15;13.63;;;8.30;;
30723;SDS011;17473;52.286;20.930;2022-09-09T08:26:44;12.88;;;8.65;;
30723;SDS011;17473;52.286;20.930;2022-09-09T08:29:15;9.93;;;8.43;;
30723;SDS011;17473;52.286;20.930;2022-09-09T08:31:47;11.88;;;8.45;;
30723;SDS011;17473;52.286;20.930;2022-09-09T08:34:17;13.40;;;9.35;;
30723;SDS011;17473;52.286;20.930;2022-09-09T08:36:47;14.85;;;8.70;;
30723;SDS011;17473;52.286;20.930;2022-09-09T08:39:17;10.65;;;8.75;;
30723;SDS011;17473;52.286;20.930;2022-09-09T08:44:45;14.68;;;9.20;;
30723;SDS011;17473;52.286;20.930;2022-09-09T08:50:27;16.52;;;9.73;;
30723;SDS011;17473;52.286;20.930;2022-09-09T08:53:20;12.50;;;9.18;;
30723;SDS011;17473;52.286;20.930;2022-09-09T08:56:01;14.45;;;10.05;;
30723;SDS011;17473;52.286;20.930;2022-09-09T08:58:41;16.17;;;9.68;;
30723;SDS011;17473;52.286;20.930;2022-09-09T09:10:12;19.50;;;10.73;;
30723;SDS011;17473;52.286;20.930;2022-09-09T09:13:11;16.92;;;10.15;;
30723;SDS011;17473;52.286;20.930;2022-09-09T09:19:13;19.95;;;10.90;;
30723;SDS011;17473;52.286;20.930;2022-09-09T09:21:43;20.58;;;11.30;;
30723;SDS011;17473;52.286;20.930;2022-09-09T09:24:18;19.45;;;9.75;;
30723;SDS011;17473;52.286;20.930;2022-09-09T09:26:52;19.10;;;11.30;;
30723;SDS011;17473;52.286;20.930;2022-09-09T09:29:20;19.23;;;11.80;;
30723;SDS011;17473;52.286;20.930;2022-09-09T09:34:21;16.08;;;11.18;;
30723;SDS011;17473;52.286;20.930;2022-09-09T09:36:54;19.75;;;11.85;;
30723;SDS011;17473;52.286;20.930;2022-09-09T09:39:24;30.85;;;12.45;;
30723;SDS011;17473;52.286;20.930;2022-09-09T09:42:17;23.52;;;12.85;;
30723;SDS011;17473;52.286;20.930;2022-09-09T09:44:48;20.83;;;12.55;;
30723;SDS011;17473;52.286;20.930;2022-09-09T09:47:22;20.23;;;12.50;;
30723;SDS011;17473;52.286;20.930;2022-09-09T09:49:59;21.80;;;12.40;;
30723;SDS011;17473;52.286;20.930;2022-09-09T09:52:29;19.85;;;13.05;;
30723;SDS011;17473;52.286;20.930;2022-09-09T09:54:58;21.77;;;12.88;;
30723;SDS011;17473;52.286;20.930;2022-09-09T09:57:33;20.70;;;11.77;;
30723;SDS011;17473;52.286;20.930;2022-09-09T10:00:04;19.05;;;13.13;;
30723;SDS011;17473;52.286;20.930;2022-09-09T10:02:43;20.02;;;12.98;;
30723;SDS011;17473;52.286;20.930;2022-09-09T10:05:14;19.55;;;12.30;;
30723;SDS011;17473;52.286;20.930;2022-09-09T10:08:05;26.38;;;12.90;;
30723;SDS011;17473;52.286;20.930;2022-09-09T10:19:40;24.10;;;13.93;;
30723;SDS011;17473;52.286;20.930;2022-09-09T10:22:26;26.88;;;13.98;;
30723;SDS011;17473;52.286;20.930;2022-09-09T10:43:37;29.73;;;15.50;;
30723;SDS011;17473;52.286;20.930;2022-09-09T10:46:49;30.75;;;15.20;;
30723;SDS011;17473;52.286;20.930;2022-09-09T10:52:29;25.75;;;15.05;;
30723;SDS011;17473;52.286;20.930;2022-09-09T10:55:17;23.98;;;15.40;;
30723;SDS011;17473;52.286;20.930;2022-09-09T10:57:55;26.98;;;16.27;;
30723;SDS011;17473;52.286;20.930;2022-09-09T11:00:36;25.02;;;15.48;;
30723;SDS011;17473;52.286;20.930;2022-09-09T11:03:14;23.70;;;15.73;;
30723;SDS011;17473;52.286;20.930;2022-09-09T11:08:39;36.50;;;17.10;;
30723;SDS011;17473;52.286;20.930;2022-09-09T11:11:20;26.10;;;15.60;;
30723;SDS011;17473;52.286;20.930;2022-09-09T11:13:57;28.85;;;15.68;;
30723;SDS011;17473;52.286;20.930;2022-09-09T11:16:48;26.08;;;16.33;;
30723;SDS011;17473;52.286;20.930;2022-09-09T11:19:35;23.63;;;16.08;;
30723;SDS011;17473;52.286;20.930;2022-09-09T11:22:19;26.15;;;16.02;;
30723;SDS011;17473;52.286;20.930;2022-09-09T11:28:38;29.23;;;15.85;;
30723;SDS011;17473;52.286;20.930;2022-09-09T11:34:49;33.17;;;19.23;;
30723;SDS011;17473;52.286;20.930;2022-09-09T11:40:22;34.05;;;18.65;;
30723;SDS011;17473;52.286;20.930;2022-09-09T11:45:53;37.58;;;20.85;;
30723;SDS011;17473;52.286;20.930;2022-09-09T11:48:34;32.38;;;19.67;;
30723;SDS011;17473;52.286;20.930;2022-09-09T11:51:08;32.72;;;19.90;;
30723;SDS011;17473;52.286;20.930;2022-09-09T11:59:29;37.65;;;21.63;;
30723;SDS011;17473;52.286;20.930;2022-09-09T12:01:59;33.90;;;20.40;;
30723;SDS011;17473;52.286;20.930;2022-09-09T12:07:57;31.13;;;19.63;;
30723;SDS011;17473;52.286;20.930;2022-09-09T12:12:55;36.13;;;21.58;;
30723;SDS011;17473;52.286;20.930;2022-09-09T12:15:33;39.53;;;21.35;;
30723;SDS011;17473;52.286;20.930;2022-09-09T12:18:01;38.00;;;21.60;;
30723;SDS011;17473;52.286;20.930;2022-09-09T12:20:33;52.90;;;22.95;;
30723;SDS011;17473;52.286;20.930;2022-09-09T12:23:09;38.38;;;22.58;;
30723;SDS011;17473;52.286;20.930;2022-09-09T12:32:00;38.15;;;21.50;;
30723;SDS011;17473;52.286;20.930;2022-09-09T12:37:48;37.33;;;21.90;;
30723;SDS011;17473;52.286;20.930;2022-09-09T12:40:27;38.80;;;21.52;;
30723;SDS011;17473;52.286;20.930;2022-09-09T12:43:02;45.83;;;23.63;;
30723;SDS011;17473;52.286;20.930;2022-09-09T12:45:48;41.95;;;23.45;;
30723;SDS011;17473;52.286;20.930;2022-09-09T12:48:25;39.92;;;23.95;;
30723;SDS011;17473;52.286;20.930;2022-09-09T12:51:27;44.67;;;23.48;;
30723;SDS011;17473;52.286;20.930;2022-09-09T12:53:57;37.65;;;23.30;;
30723;SDS011;17473;52.286;20.930;2022-09-09T12:56:27;39.70;;;22.85;;
30723;SDS011;17473;52.286;20.930;2022-09-09T12:58:58;43.58;;;24.42;;
30723;SDS011;17473;52.286;20.930;2022-09-09T13:01:28;43.92;;;24.33;;
30723;SDS011;17473;52.286;20.930;2022-09-09T13:03:58;40.10;;;24.58;;
30723;SDS011;17473;52.286;20.930;2022-09-09T13:06:27;42.97;;;23.98;;
30723;SDS011;17473;52.286;20.930;2022-09-09T13:09:00;40.78;;;23.40;;
30723;SDS011;17473;52.286;20.930;2022-09-09T13:14:32;47.80;;;24.38;;
30723;SDS011;17473;52.286;20.930;2022-09-09T13:17:04;41.70;;;23.25;;
30723;SDS011;17473;52.286;20.930;2022-09-09T13:19:34;44.13;;;25.25;;
30723;SDS011;17473;52.286;20.930;2022-09-09T13:22:13;42.13;;;25.80;;
30723;SDS011;17473;52.286;20.930;2022-09-09T13:30:29;40.17;;;23.58;;
30723;SDS011;17473;52.286;20.930;2022-09-09T13:35:55;51.00;;;26.48;;
30723;SDS011;17473;52.286;20.930;2022-09-09T13:38:25;43.78;;;24.85;;
30723;SDS011;17473;52.286;20.930;2022-09-09T13:40:56;46.25;;;26.42;;
30723;SDS011;17473;52.286;20.930;2022-09-09T13:43:42;52.40;;;26.52;;
30723;SDS011;17473;52.286;20.930;2022-09-09T13:48:56;47.75;;;24.55;;
30723;SDS011;17473;52.286;20.930;2022-09-09T13:51:42;47.28;;;24.95;;
30723;SDS011;17473;52.286;20.930;2022-09-09T13:54:12;44.25;;;24.98;;
30723;SDS011;17473;52.286;20.930;2022-09-09T13:56:42;47.58;;;25.17;;
30723;SDS011;17473;52.286;20.930;2022-09-09T13:59:17;43.42;;;22.95;;
30723;SDS011;17473;52.286;20.930;2022-09-09T14:02:07;47.05;;;24.48;;
30723;SDS011;17473;52.286;20.930;2022-09-09T14:04:34;49.85;;;25.60;;
30723;SDS011;17473;52.286;20.930;2022-09-09T14:07:01;48.20;;;25.70;;
30723;SDS011;17473;52.286;20.930;2022-09-09T14:09:29;49.30;;;25.17;;
30723;SDS011;17473;52.286;20.930;2022-09-09T14:11:56;44.33;;;23.45;;
30723;SDS011;17473;52.286;20.930;2022-09-09T14:14:23;46.17;;;23.63;;
30723;SDS011;17473;52.286;20.930;2022-09-09T14:16:51;46.40;;;24.73;;
30723;SDS011;17473;52.286;20.930;2022-09-09T14:19:18;44.55;;;25.08;;
30723;SDS011;17473;52.286;20.930;2022-09-09T14:21:46;43.75;;;25.45;;
30723;SDS011;17473;52.286;20.930;2022-09-09T14:24:13;47.25;;;26.13;;
30723;SDS011;17473;52.286;20.930;2022-09-09T14:26:40;41.30;;;23.67;;
30723;SDS011;17473;52.286;20.930;2022-09-09T14:29:07;46.92;;;24.98;;
30723;SDS011;17473;52.286;20.930;2022-09-09T14:31:34;47.40;;;23.55;;
30723;SDS011;17473;52.286;20.930;2022-09-09T14:34:01;43.58;;;24.02;;
30723;SDS011;17473;52.286;20.930;2022-09-09T14:36:28;39.78;;;22.80;;
30723;SDS011;17473;52.286;20.930;2022-09-09T14:38:55;41.00;;;22.77;;
30723;SDS011;17473;52.286;20.930;2022-09-09T14:41:22;42.83;;;23.42;;
30723;SDS011;17473;52.286;20.930;2022-09-09T14:43:49;47.78;;;21.95;;
30723;SDS011;17473;52.286;20.930;2022-09-09T14:46:18;50.75;;;22.30;;
30723;SDS011;17473;52.286;20.930;2022-09-09T14:48:47;46.05;;;23.27;;
30723;SDS011;17473;52.286;20.930;2022-09-09T14:51:23;42.85;;;22.48;;
30723;SDS011;17473;52.286;20.930;2022-09-09T14:53:51;43.60;;;22.05;;
30723;SDS011;17473;52.286;20.930;2022-09-09T14:56:21;42.10;;;21.65;;
30723;SDS011;17473;52.286;20.930;2022-09-09T14:58:56;44.50;;;23.45;;
30723;SDS011;17473;52.286;20.930;2022-09-09T15:01:27;47.78;;;24.00;;
30723;SDS011;17473;52.286;20.930;2022-09-09T15:03:59;44.63;;;22.35;;
30723;SDS011;17473;52.286;20.930;2022-09-09T15:06:30;42.63;;;22.95;;
30723;SDS011;17473;52.286;20.930;2022-09-09T15:09:02;45.88;;;22.42;;
30723;SDS011;17473;52.286;20.930;2022-09-09T15:11:30;43.38;;;22.83;;
30723;SDS011;17473;52.286;20.930;2022-09-09T15:14:04;39.72;;;21.95;;
30723;SDS011;17473;52.286;20.930;2022-09-09T15:16:33;41.22;;;21.58;;
30723;SDS011;17473;52.286;20.930;2022-09-09T15:19:01;43.70;;;22.65;;
30723;SDS011;17473;52.286;20.930;2022-09-09T15:21:33;39.70;;;20.20;;
30723;SDS011;17473;52.286;20.930;2022-09-09T15:24:02;35.95;;;20.20;;
30723;SDS011;17473;52.286;20.930;2022-09-09T15:26:30;44.38;;;21.80;;
30723;SDS011;17473;52.286;20.930;2022-09-09T15:28:57;38.35;;;21.77;;
30723;SDS011;17473;52.286;20.930;2022-09-09T15:31:29;42.45;;;23.48;;
30723;SDS011;17473;52.286;20.930;2022-09-09T15:33:58;43.15;;;22.92;;
30723;SDS011;17473;52.286;20.930;2022-09-09T15:36:28;44.58;;;22.13;;
30723;SDS011;17473;52.286;20.930;2022-09-09T15:38:58;38.78;;;21.55;;
30723;SDS011;17473;52.286;20.930;2022-09-09T15:41:27;40.97;;;21.98;;
30723;SDS011;17473;52.286;20.930;2022-09-09T15:43:55;43.15;;;23.55;;
30723;SDS011;17473;52.286;20.930;2022-09-09T15:48:54;40.25;;;22.42;;
30723;SDS011;17473;52.286;20.930;2022-09-09T15:51:24;39.13;;;21.83;;
30723;SDS011;17473;52.286;20.930;2022-09-09T15:54:16;44.13;;;22.92;;
30723;SDS011;17473;52.286;20.930;2022-09-09T15:56:47;41.97;;;22.60;;
30723;SDS011;17473;52.286;20.930;2022-09-09T15:59:21;40.63;;;22.40;;
30723;SDS011;17473;52.286;20.930;2022-09-09T16:01:49;44.97;;;22.08;;
30723;SDS011;17473;52.286;20.930;2022-09-09T16:04:19;42.85;;;23.70;;
30723;SDS011;17473;52.286;20.930;2022-09-09T16:06:58;46.25;;;24.10;;
30723;SDS011;17473;52.286;20.930;2022-09-09T16:09:30;40.33;;;23.35;;
30723;SDS011;17473;52.286;20.930;2022-09-09T16:11:59;45.88;;;25.25;;
30723;SDS011;17473;52.286;20.930;2022-09-09T16:14:28;43.72;;;24.77;;
30723;SDS011;17473;52.286;20.930;2022-09-09T16:17:00;48.15;;;24.27;;
30723;SDS011;17473;52.286;20.930;2022-09-09T16:19:28;44.60;;;23.88;;
30723;SDS011;17473;52.286;20.930;2022-09-09T16:21:57;39.58;;;22.25;;
30723;SDS011;17473;52.286;20.930;2022-09-09T16:24:24;42.75;;;24.45;;
30723;SDS011;17473;52.286;20.930;2022-09-09T16:26:53;45.33;;;23.05;;
30723;SDS011;17473;52.286;20.930;2022-09-09T16:29:21;44.28;;;24.27;;
30723;SDS011;17473;52.286;20.930;2022-09-09T16:31:49;40.40;;;23.33;;
30723;SDS011;17473;52.286;20.930;2022-09-09T16:34:17;44.17;;;23.75;;
30723;SDS011;17473;52.286;20.930;2022-09-09T16:36:45;45.60;;;23.45;;
30723;SDS011;17473;52.286;20.930;2022-09-09T16:39:15;41.95;;;22.67;;
30723;SDS011;17473;52.286;20.930;2022-09-09T16:41:45;40.53;;;23.13;;
30723;SDS011;17473;52.286;20.930;2022-09-09T16:44:15;39.97;;;23.17;;
30723;SDS011;17473;52.286;20.930;2022-09-09T16:46:45;39.58;;;21.80;;
30723;SDS011;17473;52.286;20.930;2022-09-09T16:49:15;35.35;;;22.10;;
30723;SDS011;17473;52.286;20.930;2022-09-09T16:51:46;40.80;;;21.70;;
30723;SDS011;17473;52.286;20.930;2022-09-09T16:54:19;37.97;;;21.40;;
30723;SDS011;17473;52.286;20.930;2022-09-09T16:56:49;46.80;;;23.50;;
30723;SDS011;17473;52.286;20.930;2022-09-09T16:59:18;37.80;;;21.20;;
30723;SDS011;17473;52.286;20.930;2022-09-09T17:01:48;38.65;;;22.75;;
30723;SDS011;17473;52.286;20.930;2022-09-09T17:04:21;39.05;;;21.15;;
30723;SDS011;17473;52.286;20.930;2022-09-09T17:06:53;31.95;;;20.13;;
30723;SDS011;17473;52.286;20.930;2022-09-09T17:09:22;36.65;;;20.10;;
30723;SDS011;17473;52.286;20.930;2022-09-09T17:11:53;33.80;;;21.15;;
30723;SDS011;17473;52.286;20.930;2022-09-09T17:14:21;41.00;;;20.30;;
30723;SDS011;17473;52.286;20.930;2022-09-09T17:16:49;37.35;;;21.45;;
30723;SDS011;17473;52.286;20.930;2022-09-09T17:19:17;34.92;;;19.20;;
30723;SDS011;17473;52.286;20.930;2022-09-09T17:21:44;37.70;;;20.35;;
30723;SDS011;17473;52.286;20.930;2022-09-09T17:24:33;33.30;;;18.83;;
30723;SDS011;17473;52.286;20.930;2022-09-09T17:27:00;33.35;;;19.35;;